Time;durP1;ratioP1;P1;durP2;ratioP2;P2;SDS_P1;SDS_P2;PMS_P1;PMS_P2;Temp;Humidity;BMP_temperature;BMP_pressure;BME280_temperature;BME280_humidity;BME280_pressure;Samples;Min_cycle;Max_cycle;Signal;HPM_P1;HPM_P2
2022/07/27 00:00:36;;;;;;;;;;;22.80;44.30;;;;;;5034337;28;19921;-60
2022/07/27 00:03:03;;;;;;;;;;;22.80;44.30;;;;;;5037920;28;19922;-59
2022/07/27 00:05:32;;;;;;;;;;;22.80;44.30;;;;;;5006338;28;19925;-60
2022/07/27 00:07:59;;;;;;;;;;;22.80;44.30;;;;;;5002777;28;20016;-61
2022/07/27 00:10:25;;;;;;;;;;;22.70;44.20;;;;;;5020883;28;19975;-60
2022/07/27 00:12:56;;;;;;;;;;;22.70;44.10;;;;;;5005364;28;19922;-60
2022/07/27 00:15:24;;;;;;;;;;;22.70;44.10;;;;;;5018306;28;19928;-59
2022/07/27 00:17:51;;;;;;;;;;;22.70;44.10;;;;;;5027784;28;19925;-59
2022/07/27 00:20:17;;;;;;;;;;;22.70;44.10;;;;;;5007468;28;19925;-60
2022/07/27 00:22:44;;;;;;;;;;;22.70;44.10;;;;;;5027524;28;19922;-60
2022/07/27 00:25:11;;;;;;;;;;;22.70;44.10;;;;;;5016343;28;19929;-60
2022/07/27 00:27:38;;;;;;;;;;;22.70;44.10;;;;;;5019181;28;19924;-59
2022/07/27 00:30:05;;;;;;;;;;;22.70;44.10;;;;;;5003465;28;20031;-59
2022/07/27 00:32:33;;;;;;;;;;;22.70;44.10;;;;;;5005281;28;19935;-61
2022/07/27 00:35:00;;;;;;;;;;;22.70;44.10;;;;;;5039469;28;19932;-60
2022/07/27 00:37:27;;;;;;;;;;;22.70;44.10;;;;;;5002705;28;19944;-58
2022/07/27 00:39:55;;;;;;;;;;;22.70;44.10;;;;;;4997471;28;19921;-60
2022/07/27 00:42:26;;;;;;;;;;;22.70;44.10;;;;;;5006385;28;19933;-60
2022/07/27 00:44:53;;;;;;;;;;;22.70;44.10;;;;;;5021919;28;19928;-60
2022/07/27 00:47:20;;;;;;;;;;;22.70;44.20;;;;;;5031852;28;20317;-59
2022/07/27 00:49:48;;;;;;;;;;;22.70;44.10;;;;;;4995718;28;19921;-60
2022/07/27 00:52:15;;;;;;;;;;;22.70;44.20;;;;;;5031512;28;19925;-59
2022/07/27 00:54:42;;;;;;;;;;;22.70;44.20;;;;;;5029783;28;20294;-59
2022/07/27 00:57:09;;;;;;;;;;;22.70;44.20;;;;;;5014360;28;20318;-60
2022/07/27 00:59:36;;;;;;;;;;;22.70;44.20;;;;;;5008152;28;20016;-61
2022/07/27 01:02:03;;;;;;;;;;;22.70;44.20;;;;;;5006642;28;19973;-60
2022/07/27 01:04:30;;;;;;;;;;;22.70;44.20;;;;;;4998909;28;20035;-60
2022/07/27 01:06:58;;;;;;;;;;;22.70;44.20;;;;;;5027509;28;19972;-59
2022/07/27 01:12:11;;;;;;;;;;;22.70;44.20;;;;;;5046068;28;19937;-60
2022/07/27 01:14:38;;;;;;;;;;;22.70;44.30;;;;;;5011739;28;19928;-60
2022/07/27 01:17:04;;;;;;;;;;;22.60;44.20;;;;;;5012085;28;19921;-60
2022/07/27 01:19:31;;;;;;;;;;;22.70;44.30;;;;;;5015993;28;19921;-59
2022/07/27 01:22:00;;;;;;;;;;;22.60;44.20;;;;;;5005910;28;19921;-60
2022/07/27 01:24:27;;;;;;;;;;;22.70;44.30;;;;;;5032335;28;19975;-60
2022/07/27 01:26:53;;;;;;;;;;;22.60;44.20;;;;;;5000649;28;19956;-58
2022/07/27 01:29:20;;;;;;;;;;;22.60;44.20;;;;;;5017278;28;20417;-60
2022/07/27 01:31:47;;;;;;;;;;;22.60;44.20;;;;;;5010720;28;19946;-59
2022/07/27 01:34:14;;;;;;;;;;;22.60;44.20;;;;;;5032206;28;19960;-60
2022/07/27 01:36:40;;;;;;;;;;;22.60;44.20;;;;;;5008398;28;19969;-59
2022/07/27 01:39:08;;;;;;;;;;;22.60;44.20;;;;;;5002582;28;19928;-60
2022/07/27 01:41:35;;;;;;;;;;;22.60;44.30;;;;;;5012983;28;20044;-59
2022/07/27 01:44:02;;;;;;;;;;;22.60;44.30;;;;;;5025535;28;19966;-60
2022/07/27 01:46:29;;;;;;;;;;;22.60;44.30;;;;;;5006453;28;20032;-60
2022/07/27 01:48:55;;;;;;;;;;;22.60;44.30;;;;;;5018448;28;19953;-60
2022/07/27 01:51:22;;;;;;;;;;;22.60;44.30;;;;;;5024776;28;20021;-59
2022/07/27 01:53:49;;;;;;;;;;;22.60;44.30;;;;;;5011635;28;19922;-60
2022/07/27 01:56:17;;;;;;;;;;;22.60;44.30;;;;;;4997654;28;19921;-58
2022/07/27 01:58:43;;;;;;;;;;;22.60;44.30;;;;;;5008674;28;20370;-60
2022/07/27 02:01:10;;;;;;;;;;;22.60;44.20;;;;;;5011922;28;19929;-60
2022/07/27 02:03:37;;;;;;;;;;;22.60;44.20;;;;;;4997807;28;20256;-60
2022/07/27 02:06:04;;;;;;;;;;;22.60;44.20;;;;;;5000708;28;19992;-60
2022/07/27 02:08:31;;;;;;;;;;;22.60;44.20;;;;;;5017479;28;20262;-60
2022/07/27 02:13:46;;;;;;;;;;;22.60;44.20;;;;;;5004546;28;19941;-59
2022/07/27 02:16:12;;;;;;;;;;;22.60;44.20;;;;;;5030765;28;20058;-59
2022/07/27 02:18:39;;;;;;;;;;;22.60;44.20;;;;;;5002993;28;19932;-58
2022/07/27 02:21:06;;;;;;;;;;;22.60;44.30;;;;;;4994002;28;19921;-59
2022/07/27 02:23:33;;;;;;;;;;;22.60;44.30;;;;;;5010965;28;19976;-60
2022/07/27 02:26:00;;;;;;;;;;;22.60;44.30;;;;;;5034741;28;19925;-60
2022/07/27 02:28:26;;;;;;;;;;;22.60;44.30;;;;;;5025510;28;19921;-60
2022/07/27 02:30:54;;;;;;;;;;;22.60;44.30;;;;;;5026684;28;19932;-60
2022/07/27 02:33:21;;;;;;;;;;;22.60;44.30;;;;;;5026588;28;19921;-60
2022/07/27 02:35:48;;;;;;;;;;;22.60;44.30;;;;;;5008330;28;19925;-60
2022/07/27 02:38:15;;;;;;;;;;;22.50;44.30;;;;;;5040587;28;20096;-60
2022/07/27 02:40:42;;;;;;;;;;;22.50;44.30;;;;;;5009693;28;19972;-60
2022/07/27 02:43:09;;;;;;;;;;;22.50;44.30;;;;;;5031240;28;19921;-60
2022/07/27 02:45:35;;;;;;;;;;;22.50;44.30;;;;;;5014543;28;20318;-61
2022/07/27 02:48:04;;;;;;;;;;;22.50;44.30;;;;;;5020518;28;20007;-60
2022/07/27 02:50:31;;;;;;;;;;;22.50;44.30;;;;;;4996267;28;19925;-61
2022/07/27 02:52:57;;;;;;;;;;;22.50;44.30;;;;;;4995950;28;20287;-59
2022/07/27 02:55:24;;;;;;;;;;;22.50;44.20;;;;;;5014994;28;19928;-61
2022/07/27 02:57:51;;;;;;;;;;;22.50;44.30;;;;;;5011086;28;19988;-60
2022/07/27 03:00:18;;;;;;;;;;;22.50;44.30;;;;;;5007831;28;19962;-60
2022/07/27 03:02:47;;;;;;;;;;;22.50;44.30;;;;;;5012228;28;19925;-60
2022/07/27 03:05:16;;;;;;;;;;;22.50;44.30;;;;;;4998035;28;19922;-60
2022/07/27 03:07:42;;;;;;;;;;;22.50;44.30;;;;;;5019322;28;20331;-64
2022/07/27 03:10:09;;;;;;;;;;;22.50;44.30;;;;;;4999491;28;19925;-60
2022/07/27 03:12:36;;;;;;;;;;;22.50;44.30;;;;;;5028741;28;21922;-60
2022/07/27 03:15:03;;;;;;;;;;;22.50;44.30;;;;;;5007497;28;19921;-59
2022/07/27 03:17:29;;;;;;;;;;;22.50;44.40;;;;;;5003436;28;20322;-60
2022/07/27 03:19:56;;;;;;;;;;;22.50;44.40;;;;;;5028847;28;19940;-59
2022/07/27 03:22:24;;;;;;;;;;;22.50;44.40;;;;;;5017910;28;19922;-59
2022/07/27 03:24:51;;;;;;;;;;;22.50;44.40;;;;;;5002189;28;19925;-56
2022/07/27 03:27:18;;;;;;;;;;;22.50;44.40;;;;;;5034861;28;19921;-59
2022/07/27 03:29:45;;;;;;;;;;;22.50;44.40;;;;;;5031723;28;19967;-59
2022/07/27 03:32:12;;;;;;;;;;;22.50;44.40;;;;;;4997867;28;19941;-60
2022/07/27 03:34:38;;;;;;;;;;;22.50;44.40;;;;;;5020761;28;19936;-60
2022/07/27 03:37:05;;;;;;;;;;;22.50;44.40;;;;;;5030655;28;19924;-60
2022/07/27 03:39:33;;;;;;;;;;;22.50;44.50;;;;;;5021518;28;19980;-60
2022/07/27 03:42:03;;;;;;;;;;;22.50;44.50;;;;;;5002361;28;20376;-60
2022/07/27 03:44:30;;;;;;;;;;;22.40;44.40;;;;;;5002830;28;19925;-61
2022/07/27 03:46:56;;;;;;;;;;;22.40;44.40;;;;;;5012401;28;19921;-60
2022/07/27 03:49:23;;;;;;;;;;;22.50;44.50;;;;;;5014651;28;20382;-60
2022/07/27 03:51:50;;;;;;;;;;;22.50;44.50;;;;;;5015033;28;20367;-61
2022/07/27 03:54:16;;;;;;;;;;;22.40;44.40;;;;;;5038099;28;20326;-60
2022/07/27 03:56:45;;;;;;;;;;;22.50;44.50;;;;;;5015778;28;20086;-59
2022/07/27 03:59:11;;;;;;;;;;;22.50;44.50;;;;;;5032519;28;19964;-60
2022/07/27 04:01:41;;;;;;;;;;;22.50;44.50;;;;;;5023161;28;19925;-58
2022/07/27 04:04:07;;;;;;;;;;;22.50;44.50;;;;;;5001343;28;20418;-60
2022/07/27 04:06:34;;;;;;;;;;;22.50;44.50;;;;;;5015454;28;19936;-59
2022/07/27 04:09:01;;;;;;;;;;;22.50;45.00;;;;;;5012257;28;20276;-59
2022/07/27 04:11:29;;;;;;;;;;;22.50;44.50;;;;;;5005513;28;19928;-60
2022/07/27 04:13:57;;;;;;;;;;;22.50;44.50;;;;;;5007870;28;19921;-60
2022/07/27 04:16:24;;;;;;;;;;;22.50;44.40;;;;;;5027340;28;20271;-61
2022/07/27 04:18:52;;;;;;;;;;;22.40;44.40;;;;;;5022742;28;20425;-60
2022/07/27 04:21:22;;;;;;;;;;;22.40;44.30;;;;;;5028280;28;19921;-58
2022/07/27 04:23:48;;;;;;;;;;;22.40;44.30;;;;;;5017181;28;19974;-60
2022/07/27 04:26:16;;;;;;;;;;;22.40;44.30;;;;;;5018935;28;19928;-60
2022/07/27 04:28:43;;;;;;;;;;;22.40;44.30;;;;;;5046539;28;20197;-60
2022/07/27 04:31:12;;;;;;;;;;;22.40;44.30;;;;;;4994191;28;19922;-60
2022/07/27 04:33:39;;;;;;;;;;;22.40;44.30;;;;;;5002641;28;19921;-59
2022/07/27 04:36:05;;;;;;;;;;;22.40;44.30;;;;;;5026103;28;19921;-60
2022/07/27 04:38:32;;;;;;;;;;;22.40;44.20;;;;;;5013112;28;20390;-59
2022/07/27 04:40:59;;;;;;;;;;;22.40;44.30;;;;;;5012761;28;20007;-59
2022/07/27 04:43:25;;;;;;;;;;;22.40;44.30;;;;;;5012121;28;19929;-60
2022/07/27 04:45:52;;;;;;;;;;;22.30;44.20;;;;;;5031326;28;19925;-61
2022/07/27 04:48:20;;;;;;;;;;;22.40;44.40;;;;;;5013260;28;20277;-60
2022/07/27 04:50:47;;;;;;;;;;;22.40;44.40;;;;;;5012415;28;19925;-59
2022/07/27 04:53:14;;;;;;;;;;;22.40;44.40;;;;;;5013853;28;20201;-59
2022/07/27 04:55:43;;;;;;;;;;;22.30;44.30;;;;;;5029883;28;19944;-59
2022/07/27 04:58:10;;;;;;;;;;;22.40;44.40;;;;;;5012528;28;19979;-60
2022/07/27 05:00:37;;;;;;;;;;;22.40;44.40;;;;;;5009380;28;19921;-58
2022/07/27 05:03:04;;;;;;;;;;;22.30;44.40;;;;;;5011974;28;19925;-60
2022/07/27 05:05:33;;;;;;;;;;;22.40;44.50;;;;;;5013427;28;19925;-60
2022/07/27 05:08:00;;;;;;;;;;;22.30;44.40;;;;;;5037035;28;20342;-60
2022/07/27 05:10:26;;;;;;;;;;;22.30;44.40;;;;;;5012574;28;20362;-60
2022/07/27 05:12:53;;;;;;;;;;;22.40;44.50;;;;;;5028107;28;20301;-59
2022/07/27 05:15:20;;;;;;;;;;;22.30;44.40;;;;;;5010719;28;19936;-60
2022/07/27 05:17:47;;;;;;;;;;;22.40;44.50;;;;;;5036987;28;19921;-59
2022/07/27 05:20:13;;;;;;;;;;;22.30;44.40;;;;;;5011621;28;19968;-60
2022/07/27 05:22:42;;;;;;;;;;;22.30;44.50;;;;;;5006277;28;19932;-60
2022/07/27 05:25:09;;;;;;;;;;;22.30;44.50;;;;;;5038071;28;20346;-60
2022/07/27 05:27:36;;;;;;;;;;;22.40;45.10;;;;;;5020051;28;20399;-61
2022/07/27 05:30:03;;;;;;;;;;;22.30;44.50;;;;;;5007945;28;20019;-60
2022/07/27 05:32:30;;;;;;;;;;;22.30;44.60;;;;;;5017149;28;19925;-60
2022/07/27 05:34:56;;;;;;;;;;;22.40;44.60;;;;;;5011979;28;19991;-59
2022/07/27 05:37:23;;;;;;;;;;;22.40;44.60;;;;;;5013096;28;19921;-59
2022/07/27 05:39:52;;;;;;;;;;;22.40;44.60;;;;;;5011606;28;19928;-59
2022/07/27 05:42:18;;;;;;;;;;;22.30;44.50;;;;;;5032279;28;19928;-61
2022/07/27 05:44:45;;;;;;;;;;;22.30;44.60;;;;;;5011442;28;20390;-60
2022/07/27 05:47:12;;;;;;;;;;;22.30;44.60;;;;;;5004836;28;19925;-60
2022/07/27 05:49:38;;;;;;;;;;;22.30;44.60;;;;;;5013119;28;19926;-61
2022/07/27 05:52:06;;;;;;;;;;;22.30;44.60;;;;;;5012385;28;20539;-60
2022/07/27 05:54:32;;;;;;;;;;;22.30;44.60;;;;;;5008165;28;20287;-60
2022/07/27 05:57:01;;;;;;;;;;;22.30;44.60;;;;;;5023697;28;19926;-59
2022/07/27 05:59:30;;;;;;;;;;;22.30;44.60;;;;;;5039669;28;19967;-60
2022/07/27 06:01:57;;;;;;;;;;;22.30;44.60;;;;;;5029841;28;19930;-61
2022/07/27 06:04:24;;;;;;;;;;;22.30;44.60;;;;;;5013540;28;19925;-60
2022/07/27 06:09:35;;;;;;;;;;;22.30;44.60;;;;;;5044899;28;20200;-60
2022/07/27 06:12:03;;;;;;;;;;;22.30;44.60;;;;;;5043682;28;20018;-61
2022/07/27 06:14:31;;;;;;;;;;;22.40;44.70;;;;;;5010926;28;19976;-61
2022/07/27 06:16:58;;;;;;;;;;;22.30;44.90;;;;;;5009216;28;19922;-60
2022/07/27 06:19:25;;;;;;;;;;;22.30;44.60;;;;;;5009108;28;20243;-61
2022/07/27 06:21:51;;;;;;;;;;;22.30;44.60;;;;;;5000267;28;20156;-59
2022/07/27 06:24:18;;;;;;;;;;;22.30;44.60;;;;;;5012170;28;19929;-60
2022/07/27 06:26:45;;;;;;;;;;;22.30;44.60;;;;;;5007414;28;19956;-60
2022/07/27 06:29:13;;;;;;;;;;;22.30;44.60;;;;;;5007018;28;19925;-60
2022/07/27 06:31:40;;;;;;;;;;;22.30;44.50;;;;;;5015559;28;19975;-60
2022/07/27 06:34:07;;;;;;;;;;;22.30;44.50;;;;;;5009008;28;19979;-61
2022/07/27 06:36:33;;;;;;;;;;;22.30;44.40;;;;;;5033650;28;19933;-61
2022/07/27 06:39:00;;;;;;;;;;;22.30;44.40;;;;;;5016268;28;19929;-61
2022/07/27 06:41:27;;;;;;;;;;;22.30;44.50;;;;;;5029442;28;19926;-61
2022/07/27 06:43:54;;;;;;;;;;;22.30;44.50;;;;;;5037128;28;19948;-60
2022/07/27 06:46:22;;;;;;;;;;;22.30;44.50;;;;;;5048549;28;19925;-61
2022/07/27 06:48:49;;;;;;;;;;;22.30;44.50;;;;;;5033798;28;19944;-61
2022/07/27 06:51:16;;;;;;;;;;;22.30;44.50;;;;;;5015751;28;19925;-61
2022/07/27 06:53:43;;;;;;;;;;;22.30;44.50;;;;;;5010318;28;20382;-61
2022/07/27 06:56:10;;;;;;;;;;;22.30;44.50;;;;;;5013548;28;20440;-60
2022/07/27 06:58:37;;;;;;;;;;;22.30;44.50;;;;;;5030517;28;19925;-60
2022/07/27 07:01:04;;;;;;;;;;;22.30;44.50;;;;;;5009111;28;19921;-59
2022/07/27 07:03:32;;;;;;;;;;;22.30;44.60;;;;;;5028296;28;20251;-61
2022/07/27 07:05:59;;;;;;;;;;;22.30;44.60;;;;;;5015920;28;19929;-60
2022/07/27 07:08:26;;;;;;;;;;;22.30;44.70;;;;;;5027743;28;19931;-65
2022/07/27 07:10:53;;;;;;;;;;;22.30;45.00;;;;;;5029978;28;19925;-65
2022/07/27 07:13:20;;;;;;;;;;;22.30;44.80;;;;;;5029484;28;19972;-65
2022/07/27 07:15:46;;;;;;;;;;;22.30;44.80;;;;;;5009966;28;20183;-65
2022/07/27 07:18:13;;;;;;;;;;;22.30;44.80;;;;;;5011705;28;20413;-64
2022/07/27 07:20:42;;;;;;;;;;;22.30;44.80;;;;;;5010116;28;20176;-64
2022/07/27 07:23:09;;;;;;;;;;;22.30;44.80;;;;;;5010044;28;19929;-64
2022/07/27 07:25:35;;;;;;;;;;;22.30;44.80;;;;;;5009255;28;19932;-64
2022/07/27 07:28:03;;;;;;;;;;;22.30;44.80;;;;;;5029608;28;19925;-63
2022/07/27 07:30:29;;;;;;;;;;;22.30;44.90;;;;;;5030905;28;19921;-64
2022/07/27 07:32:56;;;;;;;;;;;22.30;44.90;;;;;;5040643;28;19933;-65
2022/07/27 07:35:23;;;;;;;;;;;22.30;44.90;;;;;;5007963;28;19925;-66
2022/07/27 07:37:51;;;;;;;;;;;22.40;45.00;;;;;;5010637;28;19926;-64
2022/07/27 07:40:18;;;;;;;;;;;22.40;45.00;;;;;;5010838;28;19924;-63
2022/07/27 07:42:48;;;;;;;;;;;22.30;45.00;;;;;;5029719;28;19951;-64
2022/07/27 07:45:15;;;;;;;;;;;22.40;45.10;;;;;;5013088;28;20347;-64
2022/07/27 07:47:42;;;;;;;;;;;22.40;45.10;;;;;;5026704;28;19975;-68
2022/07/27 07:50:09;;;;;;;;;;;22.40;45.10;;;;;;5029238;28;19972;-63
2022/07/27 07:52:36;;;;;;;;;;;22.40;45.10;;;;;;5008463;28;20012;-65
2022/07/27 07:55:06;;;;;;;;;;;22.40;45.00;;;;;;5027830;28;20034;-65
2022/07/27 07:57:33;;;;;;;;;;;22.40;44.90;;;;;;5044076;28;20020;-65
2022/07/27 08:00:00;;;;;;;;;;;22.40;44.90;;;;;;5023736;28;20205;-63
2022/07/27 08:02:26;;;;;;;;;;;22.40;44.80;;;;;;5009049;28;19924;-63
2022/07/27 08:04:53;;;;;;;;;;;22.40;44.70;;;;;;5008429;28;19976;-64
2022/07/27 08:07:20;;;;;;;;;;;22.40;44.50;;;;;;5008615;28;20343;-65
2022/07/27 08:09:46;;;;;;;;;;;22.40;44.40;;;;;;5010105;28;19928;-64
2022/07/27 08:12:14;;;;;;;;;;;22.40;44.30;;;;;;5030837;28;19973;-64
2022/07/27 08:14:41;;;;;;;;;;;22.40;44.30;;;;;;5018473;28;19928;-64
2022/07/27 08:17:08;;;;;;;;;;;22.40;44.20;;;;;;5030498;28;20285;-63
2022/07/27 08:19:35;;;;;;;;;;;22.40;44.10;;;;;;5031319;28;19925;-64
2022/07/27 08:22:02;;;;;;;;;;;22.40;44.10;;;;;;5009530;28;19920;-64
2022/07/27 08:24:29;;;;;;;;;;;22.40;44.00;;;;;;5018095;28;19925;-65
2022/07/27 08:26:55;;;;;;;;;;;22.50;44.00;;;;;;5008505;28;20267;-64
2022/07/27 08:29:24;;;;;;;;;;;22.40;43.80;;;;;;5009033;28;19975;-64
2022/07/27 08:31:50;;;;;;;;;;;22.40;44.40;;;;;;5010842;28;20390;-66
2022/07/27 08:34:17;;;;;;;;;;;22.40;43.80;;;;;;5008633;28;19976;-64
2022/07/27 08:36:44;;;;;;;;;;;22.40;44.30;;;;;;5008918;28;20404;-64
2022/07/27 08:39:11;;;;;;;;;;;22.40;43.70;;;;;;5024784;28;19925;-64
2022/07/27 08:41:38;;;;;;;;;;;22.40;43.70;;;;;;5008282;28;19925;-64
2022/07/27 08:44:06;;;;;;;;;;;22.50;43.60;;;;;;5038288;28;20042;-65
2022/07/27 08:46:34;;;;;;;;;;;22.50;43.50;;;;;;5011519;28;20400;-64
2022/07/27 08:49:01;;;;;;;;;;;22.50;44.10;;;;;;5028552;28;20294;-65
2022/07/27 08:51:27;;;;;;;;;;;22.40;43.40;;;;;;5041676;28;20122;-64
2022/07/27 08:53:54;;;;;;;;;;;22.40;43.30;;;;;;5007297;28;19940;-64
2022/07/27 08:56:21;;;;;;;;;;;22.40;43.30;;;;;;5004427;28;19983;-64
2022/07/27 08:58:48;;;;;;;;;;;22.40;43.20;;;;;;5037832;28;19921;-64
2022/07/27 09:01:15;;;;;;;;;;;22.40;43.20;;;;;;5007164;28;19929;-66
2022/07/27 09:03:43;;;;;;;;;;;22.40;43.20;;;;;;5006103;28;19922;-65
2022/07/27 09:06:09;;;;;;;;;;;22.40;43.10;;;;;;5007432;28;19976;-66
2022/07/27 09:08:37;;;;;;;;;;;22.40;43.10;;;;;;5008700;28;19933;-64
2022/07/27 09:11:12;;;;;;;;;;;22.40;43.10;;;;;;5027388;28;19925;-64
2022/07/27 09:13:39;;;;;;;;;;;22.40;43.10;;;;;;5023794;28;20028;-65
2022/07/27 09:16:06;;;;;;;;;;;22.40;43.10;;;;;;5026599;28;20052;-65
2022/07/27 09:18:33;;;;;;;;;;;22.40;43.10;;;;;;5043920;28;20016;-64
2022/07/27 09:21:12;;;;;;;;;;;22.40;43.10;;;;;;5037813;28;19956;-67
2022/07/27 09:23:39;;;;;;;;;;;22.40;43.00;;;;;;5007081;28;19933;-64
2022/07/27 09:26:09;;;;;;;;;;;22.40;42.80;;;;;;5010333;28;20024;-65
2022/07/27 09:28:38;;;;;;;;;;;22.40;42.90;;;;;;5005461;28;20136;-64
2022/07/27 09:31:06;;;;;;;;;;;22.40;42.90;;;;;;5011453;28;19933;-64
2022/07/27 09:33:40;;;;;;;;;;;22.40;42.90;;;;;;5013463;28;20043;-63
2022/07/27 09:36:07;;;;;;;;;;;22.40;42.90;;;;;;5041495;28;20530;-64
2022/07/27 09:38:35;;;;;;;;;;;22.30;42.90;;;;;;5007620;28;19921;-63
2022/07/27 09:41:02;;;;;;;;;;;22.40;43.00;;;;;;5008252;28;19933;-63
2022/07/27 09:43:29;;;;;;;;;;;22.40;42.90;;;;;;5009267;28;19933;-64
2022/07/27 09:45:56;;;;;;;;;;;22.40;42.90;;;;;;5009863;28;20016;-64
2022/07/27 09:48:23;;;;;;;;;;;22.40;42.80;;;;;;5030050;28;19933;-64
2022/07/27 09:50:59;;;;;;;;;;;22.40;42.70;;;;;;5009061;28;20012;-63
2022/07/27 09:53:26;;;;;;;;;;;22.40;42.60;;;;;;5007309;28;19979;-64
2022/07/27 09:56:01;;;;;;;;;;;22.30;42.40;;;;;;5023536;28;19955;-64
2022/07/27 09:58:37;;;;;;;;;;;22.40;42.40;;;;;;5002831;28;19952;-63
2022/07/27 10:01:04;;;;;;;;;;;22.40;42.30;;;;;;5019607;28;19933;-64
2022/07/27 10:03:31;;;;;;;;;;;22.40;42.20;;;;;;5018276;28;19933;-64
2022/07/27 10:05:58;;;;;;;;;;;22.40;42.20;;;;;;5023292;28;20278;-63
2022/07/27 10:08:24;;;;;;;;;;;22.40;42.10;;;;;;5027870;28;19925;-63
2022/07/27 10:10:51;;;;;;;;;;;22.40;42.20;;;;;;5006766;28;19928;-65
2022/07/27 10:13:20;;;;;;;;;;;22.40;42.10;;;;;;5026642;28;20190;-63
2022/07/27 10:15:47;;;;;;;;;;;22.40;42.00;;;;;;5026256;28;19936;-63
2022/07/27 10:18:15;;;;;;;;;;;22.40;41.90;;;;;;5008763;28;19925;-60
2022/07/27 10:20:44;;;;;;;;;;;22.40;41.90;;;;;;5013096;28;19925;-64
2022/07/27 10:23:24;;;;;;;;;;;22.40;41.90;;;;;;5004385;28;19922;-61
2022/07/27 10:25:53;;;;;;;;;;;22.30;42.00;;;;;;5004281;28;19925;-59
2022/07/27 10:28:22;;;;;;;;;;;22.40;42.10;;;;;;5022788;28;20374;-60
2022/07/27 10:30:49;;;;;;;;;;;22.40;42.00;;;;;;5007566;28;19928;-60
2022/07/27 10:33:16;;;;;;;;;;;22.40;41.90;;;;;;5005362;28;19925;-61
2022/07/27 10:35:43;;;;;;;;;;;22.40;41.90;;;;;;5022119;28;19933;-61
2022/07/27 10:38:11;;;;;;;;;;;22.40;41.90;;;;;;5012129;28;19926;-58
2022/07/27 10:40:38;;;;;;;;;;;22.40;42.10;;;;;;5004929;28;19951;-59
2022/07/27 10:43:10;;;;;;;;;;;22.40;42.20;;;;;;5010452;28;20048;-59
2022/07/27 10:45:43;;;;;;;;;;;22.40;42.20;;;;;;5027524;28;20460;-61
2022/07/27 10:48:20;;;;;;;;;;;22.40;42.20;;;;;;4998708;28;20040;-61
2022/07/27 10:50:47;;;;;;;;;;;22.40;42.20;;;;;;5017815;28;19929;-61
2022/07/27 10:53:13;;;;;;;;;;;22.40;42.30;;;;;;5029405;28;19929;-62
2022/07/27 10:55:44;;;;;;;;;;;22.40;42.30;;;;;;5034779;28;19928;-61
2022/07/27 10:58:29;;;;;;;;;;;22.40;42.20;;;;;;5012654;28;20355;-61
2022/07/27 11:00:59;;;;;;;;;;;22.30;42.10;;;;;;5006839;28;20039;-61
2022/07/27 11:03:26;;;;;;;;;;;22.30;42.20;;;;;;5032273;28;20329;-61
2022/07/27 11:05:56;;;;;;;;;;;22.30;42.10;;;;;;5022634;28;19933;-61
2022/07/27 11:08:24;;;;;;;;;;;22.30;42.10;;;;;;5039994;28;19929;-62
2022/07/27 11:10:51;;;;;;;;;;;22.30;42.00;;;;;;5024651;28;19932;-61
2022/07/27 11:13:17;;;;;;;;;;;22.30;42.00;;;;;;5044810;28;19928;-62
2022/07/27 11:15:50;;;;;;;;;;;22.30;42.20;;;;;;5019497;28;19925;-61
2022/07/27 11:18:18;;;;;;;;;;;22.30;42.20;;;;;;5029741;28;20237;-62
2022/07/27 11:20:44;;;;;;;;;;;22.20;42.20;;;;;;5014327;28;19925;-61
2022/07/27 11:23:18;;;;;;;;;;;22.30;42.20;;;;;;5011905;28;19967;-61
2022/07/27 11:25:56;;;;;;;;;;;22.30;42.30;;;;;;5025176;28;19929;-61
2022/07/27 11:28:28;;;;;;;;;;;22.30;42.40;;;;;;5011812;28;20337;-61
2022/07/27 11:30:55;;;;;;;;;;;22.30;42.40;;;;;;5006791;28;19955;-59
2022/07/27 11:33:23;;;;;;;;;;;22.30;42.20;;;;;;5007100;28;19925;-61
2022/07/27 11:35:50;;;;;;;;;;;22.30;42.20;;;;;;5006346;28;20663;-62
2022/07/27 11:38:18;;;;;;;;;;;22.30;41.90;;;;;;5026559;28;19984;-62
2022/07/27 11:40:45;;;;;;;;;;;22.30;42.00;;;;;;5020592;28;20382;-61
2022/07/27 11:43:11;;;;;;;;;;;22.30;41.70;;;;;;5021087;28;19976;-62
2022/07/27 11:45:40;;;;;;;;;;;22.30;41.40;;;;;;5006719;28;19940;-62
2022/07/27 11:48:09;;;;;;;;;;;22.30;41.20;;;;;;5010306;28;20290;-62
2022/07/27 11:50:37;;;;;;;;;;;22.30;41.00;;;;;;5008628;28;19925;-62
2022/07/27 11:53:05;;;;;;;;;;;22.20;41.10;;;;;;5003211;28;19929;-67
2022/07/27 11:55:32;;;;;;;;;;;22.20;41.20;;;;;;5022003;28;19987;-64
2022/07/27 11:58:02;;;;;;;;;;;22.20;41.50;;;;;;5008238;28;20388;-65
2022/07/27 12:00:39;;;;;;;;;;;22.20;41.60;;;;;;5014047;28;20331;-64
2022/07/27 12:03:06;;;;;;;;;;;22.20;41.70;;;;;;5032889;28;20445;-67
2022/07/27 12:05:34;;;;;;;;;;;22.20;42.00;;;;;;5009173;28;19966;-65
2022/07/27 12:08:02;;;;;;;;;;;22.20;42.20;;;;;;5014003;28;19931;-64
2022/07/27 12:10:29;;;;;;;;;;;22.20;42.30;;;;;;5012270;28;19932;-65
2022/07/27 12:12:56;;;;;;;;;;;22.30;42.50;;;;;;5008437;28;20326;-65
2022/07/27 12:15:23;;;;;;;;;;;22.30;42.60;;;;;;5030886;28;19933;-64
2022/07/27 12:17:54;;;;;;;;;;;22.30;42.70;;;;;;5012762;28;20640;-66
2022/07/27 12:20:23;;;;;;;;;;;22.40;42.70;;;;;;5041564;28;19931;-64
2022/07/27 12:22:51;;;;;;;;;;;22.30;42.70;;;;;;5011682;28;19955;-64
2022/07/27 12:25:28;;;;;;;;;;;22.40;42.70;;;;;;5011221;28;19929;-65
2022/07/27 12:27:55;;;;;;;;;;;22.40;42.60;;;;;;5030350;28;19925;-66
2022/07/27 12:30:28;;;;;;;;;;;22.40;42.60;;;;;;5023892;28;19936;-65
2022/07/27 12:32:55;;;;;;;;;;;22.40;42.50;;;;;;5024115;28;20405;-67
2022/07/27 12:35:22;;;;;;;;;;;22.50;42.50;;;;;;5041685;28;20441;-65
2022/07/27 12:37:55;;;;;;;;;;;22.50;42.50;;;;;;5046249;28;19925;-65
2022/07/27 12:40:22;;;;;;;;;;;22.50;42.50;;;;;;5008239;28;20354;-65
2022/07/27 12:42:56;;;;;;;;;;;22.40;42.40;;;;;;5042918;28;19925;-65
2022/07/27 12:45:23;;;;;;;;;;;22.50;42.50;;;;;;5011061;28;20097;-66
2022/07/27 12:47:50;;;;;;;;;;;22.50;42.50;;;;;;5027426;28;20005;-62
2022/07/27 12:50:17;;;;;;;;;;;22.50;42.50;;;;;;5010622;28;20284;-65
2022/07/27 12:52:45;;;;;;;;;;;22.50;42.60;;;;;;5029126;28;19933;-65
2022/07/27 12:55:12;;;;;;;;;;;22.50;42.60;;;;;;5040901;28;19925;-67
2022/07/27 12:57:39;;;;;;;;;;;22.60;42.70;;;;;;5010234;28;20355;-66
2022/07/27 13:00:09;;;;;;;;;;;22.60;42.70;;;;;;5005381;28;20044;-66
2022/07/27 13:02:35;;;;;;;;;;;22.60;42.60;;;;;;5038163;28;19921;-64
2022/07/27 13:05:03;;;;;;;;;;;22.60;42.60;;;;;;5010530;28;19925;-64
2022/07/27 13:07:30;;;;;;;;;;;22.60;42.60;;;;;;5003460;28;19925;-65
2022/07/27 13:09:56;;;;;;;;;;;22.60;42.60;;;;;;5030072;28;19932;-64
2022/07/27 13:12:23;;;;;;;;;;;22.60;42.70;;;;;;5026400;28;19921;-66
2022/07/27 13:14:50;;;;;;;;;;;22.60;42.70;;;;;;5023835;28;19933;-64
2022/07/27 13:17:19;;;;;;;;;;;22.60;42.70;;;;;;5006294;28;20365;-64
2022/07/27 13:19:46;;;;;;;;;;;22.60;42.80;;;;;;5004274;28;19979;-64
2022/07/27 13:22:13;;;;;;;;;;;22.70;42.90;;;;;;5007302;28;19925;-65
2022/07/27 13:24:40;;;;;;;;;;;22.70;42.90;;;;;;5021808;28;19980;-64
2022/07/27 13:27:06;;;;;;;;;;;22.70;42.90;;;;;;5007110;28;19927;-66
2022/07/27 13:29:33;;;;;;;;;;;22.70;42.90;;;;;;5027858;28;20035;-61
2022/07/27 13:32:00;;;;;;;;;;;22.70;42.90;;;;;;5025101;28;19933;-65
2022/07/27 13:34:29;;;;;;;;;;;22.70;42.90;;;;;;5008414;28;19928;-64
2022/07/27 13:36:55;;;;;;;;;;;22.70;43.50;;;;;;5009633;28;19928;-64
2022/07/27 13:39:22;;;;;;;;;;;22.70;43.00;;;;;;5020700;28;19925;-65
2022/07/27 13:41:51;;;;;;;;;;;22.70;43.00;;;;;;5045530;28;19940;-64
2022/07/27 13:44:18;;;;;;;;;;;22.70;43.00;;;;;;5007396;28;19925;-65
2022/07/27 13:46:45;;;;;;;;;;;22.70;43.10;;;;;;5027543;28;19936;-64
2022/07/27 13:49:12;;;;;;;;;;;22.70;43.00;;;;;;5004502;28;19925;-64
2022/07/27 13:51:40;;;;;;;;;;;22.70;43.10;;;;;;5007773;28;19932;-65
2022/07/27 13:54:07;;;;;;;;;;;22.70;43.10;;;;;;5040041;28;19931;-64
2022/07/27 13:56:34;;;;;;;;;;;22.70;43.00;;;;;;5008183;28;19925;-65
2022/07/27 13:59:01;;;;;;;;;;;22.80;43.20;;;;;;5009505;28;19921;-64
2022/07/27 14:01:27;;;;;;;;;;;22.70;43.10;;;;;;5007364;28;20282;-65
2022/07/27 14:03:54;;;;;;;;;;;22.80;43.20;;;;;;5009888;28;20346;-65
2022/07/27 14:06:21;;;;;;;;;;;22.80;43.20;;;;;;5008056;28;19925;-64
2022/07/27 14:08:49;;;;;;;;;;;22.80;43.20;;;;;;5039905;28;19940;-66
2022/07/27 14:11:16;;;;;;;;;;;22.80;43.20;;;;;;5026935;28;19932;-65
2022/07/27 14:13:43;;;;;;;;;;;22.80;43.20;;;;;;5008480;28;20322;-68
2022/07/27 14:16:10;;;;;;;;;;;22.80;43.20;;;;;;5024721;28;20360;-66
2022/07/27 14:18:37;;;;;;;;;;;22.80;43.20;;;;;;5028453;28;20016;-65
2022/07/27 14:21:04;;;;;;;;;;;22.80;43.20;;;;;;5041405;28;20401;-65
2022/07/27 14:23:32;;;;;;;;;;;22.80;43.20;;;;;;5027707;28;20044;-65
2022/07/27 14:26:00;;;;;;;;;;;22.80;43.20;;;;;;5041350;28;19928;-66